Time;durP1;ratioP1;P1;durP2;ratioP2;P2;SDS_P1;SDS_P2;PMS_P1;PMS_P2;Temp;Humidity;BMP_temperature;BMP_pressure;BME280_temperature;BME280_humidity;BME280_pressure;Samples;Min_cycle;Max_cycle;Signal;HPM_P1;HPM_P2
2022/01/26 00:08:24;;;;;;;36.65;11.02;;;2.50;99.90;;;;;;10425409;28;20056;-61
2022/01/26 00:13:26;;;;;;;34.10;10.48;;;2.60;99.90;;;;;;10426279;28;20052;-61
2022/01/26 00:18:32;;;;;;;39.28;10.15;;;2.50;99.90;;;;;;10422649;28;20061;-61
2022/01/26 00:39:17;;;;;;;36.72;9.23;;;2.60;99.90;;;;;;10421246;28;20059;-61
2022/01/26 00:44:19;;;;;;;33.10;9.93;;;2.60;99.90;;;;;;10418978;28;20061;-60
2022/01/26 00:49:22;;;;;;;37.97;9.43;;;2.50;99.90;;;;;;10417864;28;20045;-61
2022/01/26 00:54:24;;;;;;;37.90;9.57;;;2.70;99.90;;;;;;10433520;28;20053;-61
2022/01/26 00:59:26;;;;;;;31.05;8.95;;;2.60;99.90;;;;;;10423314;28;20141;-61
2022/01/26 01:04:28;;;;;;;31.88;9.40;;;2.50;99.90;;;;;;10422842;28;20084;-61
2022/01/26 01:09:33;;;;;;;30.42;9.05;;;2.50;99.90;;;;;;10422032;28;20051;-61
2022/01/26 01:14:37;;;;;;;30.77;8.88;;;2.40;99.90;;;;;;10424862;28;20057;-61
2022/01/26 01:19:48;;;;;;;33.50;8.05;;;2.50;99.90;;;;;;10421197;28;20503;-61
2022/01/26 01:30:22;;;;;;;27.95;7.00;;;2.40;99.90;;;;;;10420575;28;20499;-61
2022/01/26 01:35:24;;;;;;;22.00;7.07;;;2.40;99.90;;;;;;10421881;28;20129;-61
2022/01/26 01:40:26;;;;;;;25.58;8.35;;;2.30;99.90;;;;;;10426968;28;20064;-61
2022/01/26 01:45:37;;;;;;;29.63;8.52;;;2.30;99.90;;;;;;10423309;28;20052;-61
2022/01/26 01:50:42;;;;;;;23.23;6.80;;;2.40;99.90;;;;;;10424954;28;20052;-61
2022/01/26 01:55:50;;;;;;;17.63;6.05;;;2.40;99.90;;;;;;10422268;28;20065;-61
2022/01/26 02:00:53;;;;;;;23.25;6.38;;;2.40;99.90;;;;;;10419879;28;20095;-61
2022/01/26 02:05:55;;;;;;;25.00;7.50;;;2.50;99.90;;;;;;10422716;28;20503;-61
2022/01/26 02:10:57;;;;;;;21.92;6.15;;;2.50;99.90;;;;;;10423932;28;20057;-60
2022/01/26 02:16:12;;;;;;;28.60;8.00;;;2.40;99.90;;;;;;10422265;28;20704;-60
2022/01/26 03:03:54;;;;;;;21.98;6.40;;;2.10;99.90;;;;;;10429706;28;20537;-60
2022/01/26 03:09:02;;;;;;;18.17;6.32;;;2.20;99.90;;;;;;10419925;28;20117;-60
2022/01/26 03:14:23;;;;;;;20.80;6.43;;;2.10;99.90;;;;;;10426200;28;20521;-60
2022/01/26 03:19:37;;;;;;;21.73;6.97;;;2.20;99.90;;;;;;10430894;28;20485;-60
2022/01/26 03:30:20;;;;;;;21.67;6.35;;;2.20;99.90;;;;;;10428156;28;20045;-61
2022/01/26 03:35:40;;;;;;;19.27;5.93;;;2.20;99.90;;;;;;10426358;28;20472;-61
2022/01/26 03:40:43;;;;;;;23.33;6.95;;;2.10;99.90;;;;;;10427729;28;20051;-61
2022/01/26 03:45:44;;;;;;;23.88;7.53;;;2.10;99.90;;;;;;10427272;28;20126;-61
2022/01/26 03:50:46;;;;;;;20.60;6.00;;;2.10;99.90;;;;;;10421524;28;20055;-60
2022/01/26 03:55:47;;;;;;;19.48;7.43;;;2.10;99.90;;;;;;10428621;28;20080;-60
2022/01/26 04:00:49;;;;;;;28.75;6.57;;;2.00;99.90;;;;;;10429258;28;20153;-60
2022/01/26 04:05:51;;;;;;;22.88;7.65;;;2.00;99.90;;;;;;10429233;28;20426;-61
2022/01/26 04:15:58;;;;;;;24.75;7.70;;;2.00;99.90;;;;;;10421964;28;20123;-60
2022/01/26 04:21:06;;;;;;;27.08;6.72;;;2.10;99.90;;;;;;10425042;28;20044;-61
2022/01/26 04:26:09;;;;;;;23.67;7.93;;;2.10;99.90;;;;;;10421448;28;20950;-60
2022/01/26 04:31:11;;;;;;;20.33;6.75;;;2.00;99.90;;;;;;10428852;28;20072;-61
2022/01/26 04:36:19;;;;;;;26.42;7.68;;;2.00;99.90;;;;;;10428876;28;20079;-61
2022/01/26 04:41:28;;;;;;;20.40;6.68;;;1.90;99.90;;;;;;10422028;28;20200;-61
2022/01/26 04:46:30;;;;;;;27.67;8.43;;;1.80;99.90;;;;;;10429479;28;20159;-61
2022/01/26 04:51:32;;;;;;;29.02;7.95;;;1.80;99.90;;;;;;10423403;28;20886;-61
2022/01/26 04:56:34;;;;;;;27.73;7.50;;;1.80;99.90;;;;;;10426807;28;20056;-61
2022/01/26 05:01:35;;;;;;;30.75;6.82;;;1.80;99.90;;;;;;10420707;28;20132;-61
2022/01/26 05:06:37;;;;;;;19.83;5.82;;;1.80;99.90;;;;;;10432003;28;20490;-61
2022/01/26 05:11:41;;;;;;;22.92;6.45;;;1.80;99.90;;;;;;10415524;28;20522;-61
2022/01/26 05:16:43;;;;;;;22.05;6.30;;;1.80;99.90;;;;;;10421083;28;20064;-60
2022/01/26 05:21:45;;;;;;;20.25;6.82;;;1.80;99.90;;;;;;10423983;28;20049;-60
2022/01/26 05:26:47;;;;;;;20.98;6.28;;;1.90;99.90;;;;;;10428838;28;20496;-60
2022/01/26 05:31:49;;;;;;;16.25;5.68;;;1.90;99.90;;;;;;10424298;28;20146;-60
2022/01/26 05:36:51;;;;;;;19.52;6.13;;;1.90;99.90;;;;;;10421941;28;20144;-60
2022/01/26 05:41:52;;;;;;;22.20;6.63;;;1.90;99.90;;;;;;10426843;28;20133;-60
2022/01/26 05:46:54;;;;;;;24.08;7.60;;;1.80;99.90;;;;;;10422377;28;20542;-59
2022/01/26 05:51:56;;;;;;;19.08;5.90;;;1.80;99.90;;;;;;10424658;28;20379;-60
2022/01/26 05:56:57;;;;;;;28.52;6.72;;;1.80;99.90;;;;;;10429443;28;20163;-60
2022/01/26 06:01:59;;;;;;;22.20;6.93;;;1.90;99.90;;;;;;10426225;28;20073;-59
2022/01/26 06:07:01;;;;;;;21.30;6.57;;;1.80;99.90;;;;;;10421761;28;20059;-60
2022/01/26 06:12:03;;;;;;;25.73;6.03;;;1.80;99.90;;;;;;10427021;28;20148;-60
2022/01/26 06:17:05;;;;;;;26.20;7.63;;;1.70;99.90;;;;;;10421161;28;20060;-60
2022/01/26 06:22:06;;;;;;;21.75;7.47;;;1.80;99.90;;;;;;10421959;28;20103;-60
2022/01/26 06:27:08;;;;;;;26.83;7.05;;;1.90;99.90;;;;;;10426957;28;20057;-60
2022/01/26 06:32:10;;;;;;;19.33;6.70;;;2.00;99.90;;;;;;10431955;28;20115;-60
2022/01/26 06:37:15;;;;;;;20.98;7.20;;;1.90;99.90;;;;;;10429046;28;20553;-60
2022/01/26 06:42:21;;;;;;;29.17;6.85;;;1.90;99.90;;;;;;10440092;28;20154;-60
2022/01/26 06:52:27;;;;;;;19.17;6.30;;;2.10;99.90;;;;;;10429727;28;20488;-60
2022/01/26 06:57:29;;;;;;;15.25;5.93;;;2.10;99.90;;;;;;10429641;28;20500;-60
2022/01/26 07:02:30;;;;;;;23.50;7.20;;;2.10;99.90;;;;;;10431424;28;20085;-60
2022/01/26 07:07:32;;;;;;;21.90;5.57;;;2.10;99.90;;;;;;10424598;28;20089;-62
2022/01/26 07:12:35;;;;;;;23.95;6.47;;;2.10;99.90;;;;;;10422492;28;20056;-62
2022/01/26 07:23:11;;;;;;;23.25;6.43;;;2.10;99.90;;;;;;10395723;28;20118;-62
2022/01/26 07:28:13;;;;;;;20.63;6.57;;;2.10;99.90;;;;;;10432306;28;20041;-63
2022/01/26 07:33:15;;;;;;;22.35;6.50;;;2.20;99.90;;;;;;10422237;28;20307;-62
2022/01/26 07:38:17;;;;;;;21.23;6.90;;;2.20;99.90;;;;;;10425582;28;20068;-62
2022/01/26 07:43:19;;;;;;;16.92;5.30;;;2.20;99.90;;;;;;10442582;28;20680;-62
2022/01/26 07:48:22;;;;;;;18.92;5.78;;;2.20;99.90;;;;;;10427434;28;20104;-63
2022/01/26 07:53:24;;;;;;;18.40;5.75;;;2.30;99.90;;;;;;10424909;28;20053;-62
2022/01/26 07:58:26;;;;;;;18.05;5.53;;;2.30;99.90;;;;;;10427370;28;20121;-63
2022/01/26 08:03:33;;;;;;;18.40;5.30;;;2.30;99.90;;;;;;10425077;28;20053;-63
2022/01/26 08:08:35;;;;;;;16.70;5.78;;;2.20;99.90;;;;;;10423594;28;20517;-63
2022/01/26 08:13:37;;;;;;;17.15;6.18;;;2.20;99.90;;;;;;10427403;28;20106;-63
2022/01/26 08:18:39;;;;;;;15.70;4.50;;;2.20;99.90;;;;;;10414516;28;20396;-63
2022/01/26 08:23:43;;;;;;;17.23;5.80;;;2.20;99.90;;;;;;10427294;28;20053;-63
2022/01/26 08:28:51;;;;;;;16.55;5.50;;;2.40;99.90;;;;;;10427713;28;20146;-63
2022/01/26 08:33:52;;;;;;;12.73;4.68;;;2.30;99.90;;;;;;10423584;28;20076;-63
2022/01/26 08:38:54;;;;;;;24.98;6.45;;;2.30;99.90;;;;;;10425609;28;20071;-63
2022/01/26 08:43:56;;;;;;;12.43;5.30;;;2.40;99.90;;;;;;10423670;28;20774;-64
2022/01/26 08:48:58;;;;;;;13.35;4.45;;;2.40;99.90;;;;;;10427167;28;20072;-63
2022/01/26 08:54:00;;;;;;;13.88;4.50;;;2.50;99.90;;;;;;10429436;28;20068;-63
2022/01/26 08:59:01;;;;;;;7.75;2.60;;;2.40;99.90;;;;;;10421762;28;20137;-63
2022/01/26 09:04:03;;;;;;;9.23;2.25;;;2.50;99.90;;;;;;10300238;28;20098;-63
2022/01/26 09:09:07;;;;;;;5.68;1.73;;;2.50;99.90;;;;;;10425141;28;20106;-64
2022/01/26 09:14:11;;;;;;;3.47;1.80;;;2.50;99.90;;;;;;10422404;28;20049;-63
2022/01/26 09:19:29;;;;;;;5.55;2.00;;;2.50;99.90;;;;;;10422028;28;20052;-63
2022/01/26 09:24:33;;;;;;;4.28;1.63;;;2.50;99.90;;;;;;10420017;28;20118;-63
2022/01/26 09:29:35;;;;;;;6.50;2.53;;;2.50;99.90;;;;;;10422181;28;20708;-63
2022/01/26 09:34:39;;;;;;;4.82;2.05;;;2.50;99.90;;;;;;10420156;28;20119;-63
2022/01/26 09:39:42;;;;;;;6.85;2.53;;;2.50;99.90;;;;;;10419136;28;20464;-63
2022/01/26 09:44:44;;;;;;;6.30;1.98;;;2.50;99.90;;;;;;10421704;28;20126;-63
2022/01/26 09:49:46;;;;;;;5.00;1.92;;;2.50;99.90;;;;;;10423026;28;20516;-63
2022/01/26 09:54:48;;;;;;;6.70;2.05;;;2.50;99.90;;;;;;10418574;28;20106;-63
2022/01/26 10:00:00;;;;;;;4.78;1.95;;;2.60;99.90;;;;;;10420235;28;20056;-63
2022/01/26 10:05:08;;;;;;;5.85;3.10;;;2.60;99.90;;;;;;10419874;28;20068;-63
2022/01/26 10:15:32;;;;;;;11.00;4.57;;;2.60;99.90;;;;;;10415852;28;20053;-62
2022/01/26 10:20:53;;;;;;;9.13;3.35;;;2.70;99.90;;;;;;10416325;28;20392;-63
2022/01/26 10:26:15;;;;;;;11.40;3.22;;;2.70;99.90;;;;;;10420387;28;20044;-63
2022/01/26 10:31:28;;;;;;;10.30;4.25;;;2.80;99.90;;;;;;10422078;28;20052;-64
2022/01/26 10:36:54;;;;;;;11.55;4.85;;;2.80;99.90;;;;;;10422797;28;20425;-63
2022/01/26 10:42:01;;;;;;;13.05;5.53;;;2.80;99.90;;;;;;10422373;28;20282;-63
2022/01/26 10:47:05;;;;;;;17.13;6.03;;;2.90;99.90;;;;;;10419861;28;20056;-64
2022/01/26 10:52:19;;;;;;;15.02;6.05;;;2.90;99.90;;;;;;10418575;28;20060;-63
2022/01/26 10:57:23;;;;;;;19.73;6.05;;;2.90;99.90;;;;;;10419276;28;20107;-63
2022/01/26 11:02:29;;;;;;;19.23;5.65;;;2.90;99.90;;;;;;10416380;28;20045;-63
2022/01/26 11:07:40;;;;;;;17.17;4.45;;;3.00;99.90;;;;;;10418571;28;20077;-63
2022/01/26 11:12:42;;;;;;;14.55;5.07;;;3.00;99.90;;;;;;10426152;28;20128;-64
2022/01/26 11:17:46;;;;;;;16.45;5.88;;;3.00;99.90;;;;;;10426214;28;20936;-63
2022/01/26 11:22:56;;;;;;;17.65;5.80;;;3.00;99.90;;;;;;10423815;28;20044;-63
2022/01/26 11:27:58;;;;;;;19.95;5.80;;;3.00;99.90;;;;;;10429359;28;20450;-63
2022/01/26 11:33:11;;;;;;;19.88;5.72;;;3.10;99.90;;;;;;10427178;28;20201;-63
2022/01/26 11:49:11;;;;;;;15.98;4.70;;;3.20;99.90;;;;;;10423230;28;20059;-62
2022/01/26 11:54:15;;;;;;;20.42;5.93;;;3.20;99.90;;;;;;10426576;28;20195;-63
2022/01/26 11:59:19;;;;;;;16.65;5.05;;;3.30;99.90;;;;;;10427831;28;20099;-62
2022/01/26 12:04:23;;;;;;;17.38;5.10;;;3.30;99.90;;;;;;10426310;28;20098;-61
2022/01/26 12:09:25;;;;;;;14.55;4.63;;;3.30;99.90;;;;;;10429147;28;20106;-62
2022/01/26 12:14:27;;;;;;;21.38;6.05;;;3.30;99.90;;;;;;10424625;28;20049;-62
2022/01/26 12:19:40;;;;;;;22.60;6.85;;;3.20;99.90;;;;;;10426065;28;20106;-62
2022/01/26 12:35:51;;;;;;;20.67;6.47;;;3.20;99.90;;;;;;10423269;28;20048;-63
2022/01/26 12:46:24;;;;;;;19.30;6.15;;;3.30;99.90;;;;;;10418510;28;20036;-62
2022/01/26 12:51:29;;;;;;;19.75;7.65;;;3.10;99.90;;;;;;10415490;28;20060;-62
2022/01/26 12:56:32;;;;;;;23.67;8.30;;;3.10;99.90;;;;;;10422504;28;20060;-62
2022/01/26 13:01:36;;;;;;;21.90;7.70;;;3.10;99.90;;;;;;10421302;28;20077;-62
2022/01/26 13:06:46;;;;;;;25.50;7.55;;;2.90;99.90;;;;;;10418821;28;20408;-62
2022/01/26 13:11:50;;;;;;;26.88;8.65;;;2.80;99.90;;;;;;10418551;28;20072;-62
2022/01/26 13:22:32;;;;;;;22.38;7.88;;;2.80;99.90;;;;;;10420899;28;20052;-62
2022/01/26 13:28:00;;;;;;;22.58;7.45;;;2.70;99.90;;;;;;10421916;28;20076;-63
2022/01/26 13:38:41;;;;;;;25.70;7.72;;;2.70;99.90;;;;;;10424032;28;20585;-63
2022/01/26 13:49:16;;;;;;;28.85;9.00;;;2.70;99.90;;;;;;10418406;28;20148;-63
2022/01/26 13:59:32;;;;;;;28.63;9.00;;;2.80;99.90;;;;;;10419501;28;20045;-63
2022/01/26 14:04:34;;;;;;;27.30;7.80;;;2.80;99.90;;;;;;10422701;28;20136;-62
2022/01/26 14:09:37;;;;;;;29.20;7.88;;;2.90;99.90;;;;;;10422432;28;20072;-62
2022/01/26 14:14:43;;;;;;;31.77;8.38;;;2.90;99.90;;;;;;10423054;28;20129;-63
2022/01/26 14:20:10;;;;;;;24.25;7.43;;;2.90;99.90;;;;;;10423469;28;20071;-63
2022/01/26 14:25:29;;;;;;;24.05;7.22;;;2.80;99.90;;;;;;10419879;28;20045;-62
2022/01/26 15:34:42;;;;;;;20.48;7.45;;;3.00;99.90;;;;;;10424321;28;20138;-63
2022/01/26 15:40:07;;;;;;;27.02;7.55;;;3.00;99.90;;;;;;10424551;28;20139;-63
2022/01/26 16:28:13;;;;;;;29.40;6.75;;;3.00;99.90;;;;;;10422644;28;21427;-63
2022/01/26 17:02:29;;;;;;;29.88;7.97;;;3.00;99.90;;;;;;10400139;28;20503;-60
2022/01/26 18:40:43;;;;;;;22.67;7.45;;;2.80;99.90;;;;;;10422767;28;20611;-58
2022/01/26 18:50:56;;;;;;;19.02;7.13;;;2.90;99.90;;;;;;10417983;28;20099;-59
2022/01/26 18:55:58;;;;;;;22.83;7.38;;;2.90;99.90;;;;;;10410664;28;20049;-59
2022/01/26 19:01:04;;;;;;;20.70;6.82;;;2.90;99.90;;;;;;10417937;28;20055;-61
2022/01/26 19:06:06;;;;;;;20.98;7.93;;;2.90;99.90;;;;;;10419326;28;20049;-59
2022/01/26 19:11:10;;;;;;;23.02;8.98;;;2.90;99.90;;;;;;10413628;28;20492;-60
2022/01/26 19:16:25;;;;;;;23.73;7.05;;;2.90;99.90;;;;;;10422850;28;20593;-59
2022/01/26 19:26:37;;;;;;;18.70;6.30;;;2.90;99.90;;;;;;10420380;28;21811;-59
2022/01/26 19:32:16;;;;;;;19.60;6.03;;;2.90;99.90;;;;;;10429050;28;20045;-61
2022/01/26 19:43:53;;;;;;;19.90;7.75;;;2.90;99.90;;;;;;10423185;28;20125;-62
2022/01/26 19:53:07;;;;;;;20.55;6.53;;;2.90;99.90;;;;;;10432915;28;20080;-58
2022/01/26 19:58:09;;;;;;;17.02;5.68;;;2.90;99.90;;;;;;10415622;28;20496;-60
2022/01/26 20:03:11;;;;;;;21.38;6.25;;;2.80;99.90;;;;;;10418781;28;20049;-60
2022/01/26 20:13:28;;;;;;;13.70;5.00;;;2.80;99.90;;;;;;10423465;28;20182;-62
2022/01/26 20:18:31;;;;;;;18.67;5.57;;;2.80;99.90;;;;;;10422806;28;20037;-61
2022/01/26 20:23:36;;;;;;;17.33;6.13;;;2.80;99.90;;;;;;10421086;28;20495;-59
2022/01/26 20:28:41;;;;;;;22.33;5.82;;;2.80;99.90;;;;;;10423184;28;20053;-61
2022/01/26 20:33:44;;;;;;;14.13;5.82;;;2.80;99.90;;;;;;10424067;28;20061;-59
2022/01/26 20:38:46;;;;;;;16.27;4.82;;;2.80;99.90;;;;;;10425058;28;20052;-59
2022/01/26 20:43:47;;;;;;;18.75;6.60;;;2.80;99.90;;;;;;10425970;28;20052;-60
2022/01/26 20:48:49;;;;;;;16.15;5.47;;;2.80;99.90;;;;;;10421867;28;20041;-60
2022/01/26 20:53:52;;;;;;;15.90;4.78;;;2.70;99.90;;;;;;10423199;28;20099;-61
2022/01/26 20:58:54;;;;;;;17.17;5.38;;;2.70;99.90;;;;;;10416490;28;20111;-61
2022/01/26 21:03:55;;;;;;;18.58;6.43;;;2.70;99.90;;;;;;10419789;28;20153;-59
2022/01/26 21:08:57;;;;;;;15.90;5.63;;;2.70;99.90;;;;;;10426922;28;20060;-62
2022/01/26 21:13:59;;;;;;;18.38;5.20;;;2.70;99.90;;;;;;10420691;28;20051;-62
2022/01/26 21:19:00;;;;;;;16.88;5.53;;;2.60;99.90;;;;;;10424329;28;20879;-60
2022/01/26 21:24:02;;;;;;;15.95;5.80;;;2.60;99.90;;;;;;10422284;28;20450;-61
2022/01/26 21:29:04;;;;;;;17.10;6.22;;;2.60;99.90;;;;;;10426287;28;20094;-60
2022/01/26 21:34:06;;;;;;;17.27;6.35;;;2.60;99.90;;;;;;10413010;28;20580;-60
2022/01/26 21:39:08;;;;;;;16.52;5.80;;;2.60;99.90;;;;;;10424140;28;20136;-61
2022/01/26 21:44:12;;;;;;;19.27;6.82;;;2.50;99.90;;;;;;10422418;28;20475;-59
2022/01/26 21:49:14;;;;;;;20.20;6.75;;;2.50;99.90;;;;;;10437959;28;20391;-59
2022/01/26 21:54:16;;;;;;;19.35;6.35;;;2.40;99.90;;;;;;10421385;28;20071;-59
2022/01/26 21:59:18;;;;;;;20.25;6.68;;;2.40;99.90;;;;;;10419955;28;20049;-59
2022/01/26 22:04:20;;;;;;;20.23;6.97;;;2.30;99.90;;;;;;10417708;28;20048;-59
2022/01/26 22:09:22;;;;;;;21.25;5.78;;;2.40;99.90;;;;;;10418547;28;20431;-59
2022/01/26 22:14:23;;;;;;;18.75;5.88;;;2.30;99.90;;;;;;10421864;28;20184;-59
2022/01/26 22:19:25;;;;;;;15.48;6.32;;;2.30;99.90;;;;;;10425533;28;20087;-59
2022/01/26 22:24:27;;;;;;;20.48;7.38;;;2.30;99.90;;;;;;10418141;28;20068;-60
2022/01/26 22:29:29;;;;;;;20.83;7.18;;;2.30;99.90;;;;;;10423150;28;20095;-59
2022/01/26 22:34:30;;;;;;;17.17;6.43;;;2.20;99.90;;;;;;10423787;28;20138;-59
2022/01/26 22:39:32;;;;;;;19.73;6.35;;;2.20;99.90;;;;;;10423000;28;20134;-61
2022/01/26 22:44:34;;;;;;;16.38;6.88;;;2.20;99.90;;;;;;10416625;28;20869;-59
2022/01/26 22:49:35;;;;;;;20.17;5.88;;;2.10;99.90;;;;;;10417464;28;20139;-61
2022/01/26 22:54:37;;;;;;;19.75;7.22;;;2.10;99.90;;;;;;10422867;28;20094;-60
2022/01/26 22:59:59;;;;;;;20.00;7.68;;;2.10;99.90;;;;;;10421802;28;20052;-59
2022/01/26 23:06:00;;;;;;;17.90;6.97;;;2.10;99.90;;;;;;10422708;28;20069;-60
2022/01/26 23:10:25;;;;;;;16.80;7.32;;;2.00;99.90;;;;;;10412640;28;20161;-61
2022/01/26 23:15:47;;;;;;;21.70;6.43;;;2.10;99.90;;;;;;10429622;28;20053;-61
2022/01/26 23:21:08;;;;;;;21.08;7.45;;;2.00;99.90;;;;;;10424295;28;20053;-57
2022/01/26 23:31:55;;;;;;;;;;;2.00;99.90;;;;;;10426842;28;20072;-59
